Terminal Aerodrome Forecast
Issued by NWS Sioux Falls, SD

Home | Current Version | Previous Version | Graphics & Text | Print | Product List | Glossary On
Versions: 1 2 3 4 5 6 7 8 9 10 11 12 13 14 15 16 17 18 19 20
000
FTUS43 KFSD 151729
TAFFSD
TAF
KFSD 151729Z 1518/1618 36019G27KT 6SM -FZRAPL BR OVC012
     FM151900 35023G32KT 2SM -SN OVC012
      TEMPO 1519/1522 1SM -SN BR VV007
     FM160100 34022G30KT 4SM -SN OVC015
     FM160400 34017G24KT P6SM OVC015
     FM161300 34012G18KT P6SM OVC015=

USA.gov is the U.S. government's official web portal to all federal, state and local government web resources and services.